06D

Rolla Municipal Airport

Rolla, North Dakota, USA
METAR K06D 260535Z AUTO 35012KT 10SM CLR 05/M03 A2992 RMK AO2
Observed Flight Rules
Apr-26 @ 05:35 UTC (24 minutes ago) Visual Flight Rules
Wind Visibility Clouds
350° at 12 knots 10 miles
  • Clear skies
Temperatures Readings
Current 5°C / 41°F
Dewpoint -3°C / 27°F
Humidity 57%
Altimeter 29.92" Hg
Pressure 1013 hPa
Elevation 556
METAR K06D 260535Z AUTO 35012KT 10SM CLR 05/M03 A2992 RMK AO2
Observed Flight Rules
Apr-26 @ 05:35 UTC
(24 minutes ago)
VFR
Wind Visibility
350° at 12 knots 10 miles
Clouds
  • Clear skies
Temperature Dewpoint
5°C / 41°F -3°C / 27°F
Humidity Altimeter Pressure
57% 29.92" Hg 1013 hPa